sensor_id;sensor_type;location;lat;lon;timestamp;temperature;humidity
55642;DHT22;41509;53.108;6.100;2023-04-24T00:00:11;11.60;99.90
55642;DHT22;41509;53.108;6.100;2023-04-24T00:02:43;11.50;99.90
55642;DHT22;41509;53.108;6.100;2023-04-24T00:05:15;11.40;99.90
55642;DHT22;41509;53.108;6.100;2023-04-24T00:07:41;11.40;99.90
55642;DHT22;41509;53.108;6.100;2023-04-24T00:10:07;11.40;99.90
55642;DHT22;41509;53.108;6.100;2023-04-24T00:12:33;11.40;99.90
55642;DHT22;41509;53.108;6.100;2023-04-24T00:14:59;11.40;99.90
55642;DHT22;41509;53.108;6.100;2023-04-24T00:17:34;11.30;99.90
55642;DHT22;41509;53.108;6.100;2023-04-24T00:20:00;11.30;99.90
55642;DHT22;41509;53.108;6.100;2023-04-24T00:22:33;11.40;99.90
55642;DHT22;41509;53.108;6.100;2023-04-24T00:24:59;11.30;99.90
55642;DHT22;41509;53.108;6.100;2023-04-24T00:27:24;11.20;99.90
55642;DHT22;41509;53.108;6.100;2023-04-24T00:29:50;11.30;99.90
55642;DHT22;41509;53.108;6.100;2023-04-24T00:32:25;11.20;99.90
55642;DHT22;41509;53.108;6.100;2023-04-24T00:34:52;11.20;99.90
55642;DHT22;41509;53.108;6.100;2023-04-24T00:37:18;11.10;99.90
55642;DHT22;41509;53.108;6.100;2023-04-24T00:39:43;11.10;99.90
55642;DHT22;41509;53.108;6.100;2023-04-24T00:42:09;11.10;99.90
55642;DHT22;41509;53.108;6.100;2023-04-24T00:44:35;11.00;99.90
55642;DHT22;41509;53.108;6.100;2023-04-24T00:47:01;11.00;99.90
55642;DHT22;41509;53.108;6.100;2023-04-24T00:49:26;11.00;99.90
55642;DHT22;41509;53.108;6.100;2023-04-24T00:51:52;11.00;99.90
55642;DHT22;41509;53.108;6.100;2023-04-24T00:54:19;11.00;99.90
55642;DHT22;41509;53.108;6.100;2023-04-24T00:56:45;11.00;99.90
55642;DHT22;41509;53.108;6.100;2023-04-24T00:59:16;11.00;99.90
55642;DHT22;41509;53.108;6.100;2023-04-24T01:01:43;11.00;99.90
55642;DHT22;41509;53.108;6.100;2023-04-24T01:04:09;10.90;99.90
55642;DHT22;41509;53.108;6.100;2023-04-24T01:06:38;10.90;99.90
55642;DHT22;41509;53.108;6.100;2023-04-24T01:09:08;10.80;99.90
55642;DHT22;41509;53.108;6.100;2023-04-24T01:11:34;10.80;99.90
55642;DHT22;41509;53.108;6.100;2023-04-24T01:14:02;10.70;99.90
55642;DHT22;41509;53.108;6.100;2023-04-24T01:16:28;10.80;99.90
55642;DHT22;41509;53.108;6.100;2023-04-24T01:18:54;10.70;99.90
55642;DHT22;41509;53.108;6.100;2023-04-24T01:21:23;10.70;99.90
55642;DHT22;41509;53.108;6.100;2023-04-24T01:23:53;10.70;99.90
55642;DHT22;41509;53.108;6.100;2023-04-24T01:26:19;10.70;99.90
55642;DHT22;41509;53.108;6.100;2023-04-24T01:28:46;10.70;99.90
55642;DHT22;41509;53.108;6.100;2023-04-24T01:31:11;10.70;99.90
55642;DHT22;41509;53.108;6.100;2023-04-24T01:33:37;10.70;99.90
55642;DHT22;41509;53.108;6.100;2023-04-24T01:36:03;10.60;99.90
55642;DHT22;41509;53.108;6.100;2023-04-24T01:38:28;10.60;99.90
55642;DHT22;41509;53.108;6.100;2023-04-24T01:40:54;10.60;99.90
55642;DHT22;41509;53.108;6.100;2023-04-24T01:43:20;10.60;99.90
55642;DHT22;41509;53.108;6.100;2023-04-24T01:45:46;10.60;99.90
55642;DHT22;41509;53.108;6.100;2023-04-24T01:48:12;10.60;99.90
55642;DHT22;41509;53.108;6.100;2023-04-24T01:50:38;10.60;99.90
55642;DHT22;41509;53.108;6.100;2023-04-24T01:53:04;10.70;99.90
55642;DHT22;41509;53.108;6.100;2023-04-24T01:55:30;10.60;99.90
55642;DHT22;41509;53.108;6.100;2023-04-24T01:57:55;10.60;99.90
55642;DHT22;41509;53.108;6.100;2023-04-24T02:00:22;10.60;99.90
55642;DHT22;41509;53.108;6.100;2023-04-24T02:02:50;10.70;99.90
55642;DHT22;41509;53.108;6.100;2023-04-24T02:05:16;10.60;99.90
55642;DHT22;41509;53.108;6.100;2023-04-24T02:07:41;10.70;99.90
55642;DHT22;41509;53.108;6.100;2023-04-24T02:10:10;10.60;99.90
55642;DHT22;41509;53.108;6.100;2023-04-24T02:12:36;10.70;99.90
55642;DHT22;41509;53.108;6.100;2023-04-24T02:15:02;10.70;99.90
55642;DHT22;41509;53.108;6.100;2023-04-24T02:17:30;10.70;99.90
55642;DHT22;41509;53.108;6.100;2023-04-24T02:19:56;10.70;99.90
55642;DHT22;41509;53.108;6.100;2023-04-24T02:22:24;10.70;99.90
55642;DHT22;41509;53.108;6.100;2023-04-24T02:24:50;10.70;99.90
55642;DHT22;41509;53.108;6.100;2023-04-24T02:27:15;10.70;99.90
55642;DHT22;41509;53.108;6.100;2023-04-24T02:29:41;10.70;99.90
55642;DHT22;41509;53.108;6.100;2023-04-24T02:32:06;10.70;99.90
55642;DHT22;41509;53.108;6.100;2023-04-24T02:34:34;10.70;99.90
55642;DHT22;41509;53.108;6.100;2023-04-24T02:37:00;10.70;99.90
55642;DHT22;41509;53.108;6.100;2023-04-24T02:39:25;10.70;99.90
55642;DHT22;41509;53.108;6.100;2023-04-24T02:41:51;10.70;99.90
55642;DHT22;41509;53.108;6.100;2023-04-24T02:44:17;10.70;99.90
55642;DHT22;41509;53.108;6.100;2023-04-24T02:46:43;10.70;99.90
55642;DHT22;41509;53.108;6.100;2023-04-24T02:49:08;10.70;99.90
55642;DHT22;41509;53.108;6.100;2023-04-24T02:51:34;10.70;99.90
55642;DHT22;41509;53.108;6.100;2023-04-24T02:54:00;10.70;99.90
55642;DHT22;41509;53.108;6.100;2023-04-24T02:56:25;10.70;99.90
55642;DHT22;41509;53.108;6.100;2023-04-24T02:58:51;10.70;99.90
55642;DHT22;41509;53.108;6.100;2023-04-24T03:01:17;10.70;99.90
55642;DHT22;41509;53.108;6.100;2023-04-24T03:03:43;10.70;99.90
55642;DHT22;41509;53.108;6.100;2023-04-24T03:06:08;10.70;99.90
55642;DHT22;41509;53.108;6.100;2023-04-24T03:08:35;10.70;99.90
55642;DHT22;41509;53.108;6.100;2023-04-24T03:11:00;10.70;99.90
55642;DHT22;41509;53.108;6.100;2023-04-24T03:13:26;10.70;99.90
55642;DHT22;41509;53.108;6.100;2023-04-24T03:15:52;10.70;99.90
55642;DHT22;41509;53.108;6.100;2023-04-24T03:18:18;10.70;99.90
55642;DHT22;41509;53.108;6.100;2023-04-24T03:20:45;10.70;99.90
55642;DHT22;41509;53.108;6.100;2023-04-24T03:23:12;10.70;99.90
55642;DHT22;41509;53.108;6.100;2023-04-24T03:25:37;10.70;99.90
55642;DHT22;41509;53.108;6.100;2023-04-24T03:28:03;10.70;99.90
55642;DHT22;41509;53.108;6.100;2023-04-24T03:30:28;10.70;99.90
55642;DHT22;41509;53.108;6.100;2023-04-24T03:32:54;10.70;99.90
55642;DHT22;41509;53.108;6.100;2023-04-24T03:35:20;10.70;99.90
55642;DHT22;41509;53.108;6.100;2023-04-24T03:37:47;10.70;99.90
55642;DHT22;41509;53.108;6.100;2023-04-24T03:40:12;10.70;99.90
55642;DHT22;41509;53.108;6.100;2023-04-24T03:42:38;10.70;99.90
55642;DHT22;41509;53.108;6.100;2023-04-24T03:45:04;10.70;99.90
55642;DHT22;41509;53.108;6.100;2023-04-24T03:47:30;10.70;99.90
55642;DHT22;41509;53.108;6.100;2023-04-24T03:49:56;10.70;99.90
55642;DHT22;41509;53.108;6.100;2023-04-24T03:52:22;10.70;99.90
55642;DHT22;41509;53.108;6.100;2023-04-24T03:54:47;10.70;99.90
55642;DHT22;41509;53.108;6.100;2023-04-24T03:57:13;10.70;99.90
55642;DHT22;41509;53.108;6.100;2023-04-24T03:59:38;10.70;99.90
55642;DHT22;41509;53.108;6.100;2023-04-24T04:02:04;10.70;99.90
55642;DHT22;41509;53.108;6.100;2023-04-24T04:04:30;10.70;99.90
55642;DHT22;41509;53.108;6.100;2023-04-24T04:06:55;10.60;99.90
55642;DHT22;41509;53.108;6.100;2023-04-24T04:09:21;10.70;99.90
55642;DHT22;41509;53.108;6.100;2023-04-24T04:11:49;10.70;99.90
55642;DHT22;41509;53.108;6.100;2023-04-24T04:14:15;10.70;99.90
55642;DHT22;41509;53.108;6.100;2023-04-24T04:16:40;10.70;99.90
55642;DHT22;41509;53.108;6.100;2023-04-24T04:19:06;10.70;99.90
55642;DHT22;41509;53.108;6.100;2023-04-24T04:21:32;10.60;99.90
55642;DHT22;41509;53.108;6.100;2023-04-24T04:23:58;10.60;99.90
55642;DHT22;41509;53.108;6.100;2023-04-24T04:26:27;10.60;99.90
55642;DHT22;41509;53.108;6.100;2023-04-24T04:28:55;10.60;99.90
55642;DHT22;41509;53.108;6.100;2023-04-24T04:31:21;10.60;99.90
55642;DHT22;41509;53.108;6.100;2023-04-24T04:33:49;10.60;99.90
55642;DHT22;41509;53.108;6.100;2023-04-24T04:36:15;10.60;99.90
55642;DHT22;41509;53.108;6.100;2023-04-24T04:38:42;10.60;99.90
55642;DHT22;41509;53.108;6.100;2023-04-24T04:41:10;10.60;99.90
55642;DHT22;41509;53.108;6.100;2023-04-24T04:43:36;10.60;99.90
55642;DHT22;41509;53.108;6.100;2023-04-24T04:46:01;10.60;99.90
55642;DHT22;41509;53.108;6.100;2023-04-24T04:48:29;10.50;99.90
55642;DHT22;41509;53.108;6.100;2023-04-24T04:50:57;10.50;99.90
55642;DHT22;41509;53.108;6.100;2023-04-24T04:53:22;10.50;99.90
55642;DHT22;41509;53.108;6.100;2023-04-24T04:55:48;10.50;99.90
55642;DHT22;41509;53.108;6.100;2023-04-24T04:58:13;10.50;99.90
55642;DHT22;41509;53.108;6.100;2023-04-24T05:00:39;10.50;99.90
55642;DHT22;41509;53.108;6.100;2023-04-24T05:03:05;10.40;99.90
55642;DHT22;41509;53.108;6.100;2023-04-24T05:05:31;10.50;99.90
55642;DHT22;41509;53.108;6.100;2023-04-24T05:07:57;10.40;99.90
55642;DHT22;41509;53.108;6.100;2023-04-24T05:10:22;10.40;99.90
55642;DHT22;41509;53.108;6.100;2023-04-24T05:12:48;10.40;99.90
55642;DHT22;41509;53.108;6.100;2023-04-24T05:15:14;10.40;99.90
55642;DHT22;41509;53.108;6.100;2023-04-24T05:17:40;10.40;99.90
55642;DHT22;41509;53.108;6.100;2023-04-24T05:20:07;10.40;99.90
55642;DHT22;41509;53.108;6.100;2023-04-24T05:22:32;10.40;99.90
55642;DHT22;41509;53.108;6.100;2023-04-24T05:24:58;10.40;99.90
55642;DHT22;41509;53.108;6.100;2023-04-24T05:27:24;10.40;99.90
55642;DHT22;41509;53.108;6.100;2023-04-24T05:29:50;10.30;99.90
55642;DHT22;41509;53.108;6.100;2023-04-24T05:32:16;10.30;99.90
55642;DHT22;41509;53.108;6.100;2023-04-24T05:34:42;10.30;99.90
55642;DHT22;41509;53.108;6.100;2023-04-24T05:37:08;10.30;99.90
55642;DHT22;41509;53.108;6.100;2023-04-24T05:39:35;10.30;99.90
55642;DHT22;41509;53.108;6.100;2023-04-24T05:42:02;10.30;99.90
55642;DHT22;41509;53.108;6.100;2023-04-24T05:44:28;10.30;99.90
55642;DHT22;41509;53.108;6.100;2023-04-24T05:46:54;10.30;99.90
55642;DHT22;41509;53.108;6.100;2023-04-24T05:49:21;10.30;99.90
55642;DHT22;41509;53.108;6.100;2023-04-24T05:51:49;10.30;99.90
55642;DHT22;41509;53.108;6.100;2023-04-24T05:54:15;10.30;99.90
55642;DHT22;41509;53.108;6.100;2023-04-24T05:56:41;10.30;99.90
55642;DHT22;41509;53.108;6.100;2023-04-24T05:59:07;10.30;99.90
55642;DHT22;41509;53.108;6.100;2023-04-24T06:01:33;10.30;99.90
55642;DHT22;41509;53.108;6.100;2023-04-24T06:03:59;10.30;99.90
55642;DHT22;41509;53.108;6.100;2023-04-24T06:06:25;10.30;99.90
55642;DHT22;41509;53.108;6.100;2023-04-24T06:08:51;10.20;99.90
55642;DHT22;41509;53.108;6.100;2023-04-24T06:11:17;10.20;99.90
55642;DHT22;41509;53.108;6.100;2023-04-24T06:13:43;10.20;99.90
55642;DHT22;41509;53.108;6.100;2023-04-24T06:16:08;10.20;99.90
55642;DHT22;41509;53.108;6.100;2023-04-24T06:18:34;10.20;99.90
55642;DHT22;41509;53.108;6.100;2023-04-24T06:21:00;10.20;99.90
55642;DHT22;41509;53.108;6.100;2023-04-24T06:23:25;10.20;99.90
55642;DHT22;41509;53.108;6.100;2023-04-24T06:25:51;10.20;99.90
55642;DHT22;41509;53.108;6.100;2023-04-24T06:28:17;10.20;99.90
55642;DHT22;41509;53.108;6.100;2023-04-24T06:30:43;10.20;99.90
55642;DHT22;41509;53.108;6.100;2023-04-24T06:33:09;10.30;99.90
55642;DHT22;41509;53.108;6.100;2023-04-24T06:35:36;10.30;99.90
55642;DHT22;41509;53.108;6.100;2023-04-24T06:38:01;10.20;99.90
55642;DHT22;41509;53.108;6.100;2023-04-24T06:40:27;10.30;99.90
55642;DHT22;41509;53.108;6.100;2023-04-24T06:42:52;10.20;99.90
55642;DHT22;41509;53.108;6.100;2023-04-24T06:45:18;10.20;99.90
55642;DHT22;41509;53.108;6.100;2023-04-24T06:47:47;10.20;99.90
55642;DHT22;41509;53.108;6.100;2023-04-24T06:50:13;10.20;99.90
55642;DHT22;41509;53.108;6.100;2023-04-24T06:52:38;10.20;99.90
55642;DHT22;41509;53.108;6.100;2023-04-24T06:55:04;10.10;99.90
55642;DHT22;41509;53.108;6.100;2023-04-24T06:57:31;10.10;99.90
55642;DHT22;41509;53.108;6.100;2023-04-24T06:59:56;10.10;99.90
55642;DHT22;41509;53.108;6.100;2023-04-24T07:02:22;10.10;99.90
55642;DHT22;41509;53.108;6.100;2023-04-24T07:04:48;10.10;99.90
55642;DHT22;41509;53.108;6.100;2023-04-24T07:07:14;10.10;99.90
55642;DHT22;41509;53.108;6.100;2023-04-24T07:09:40;10.10;99.90
55642;DHT22;41509;53.108;6.100;2023-04-24T07:12:10;10.00;99.90
55642;DHT22;41509;53.108;6.100;2023-04-24T07:14:39;9.90;99.90
55642;DHT22;41509;53.108;6.100;2023-04-24T07:17:05;9.90;99.90
55642;DHT22;41509;53.108;6.100;2023-04-24T07:19:33;10.00;99.90
55642;DHT22;41509;53.108;6.100;2023-04-24T07:21:59;9.90;99.90
55642;DHT22;41509;53.108;6.100;2023-04-24T07:24:25;9.90;99.90
55642;DHT22;41509;53.108;6.100;2023-04-24T07:26:52;9.90;99.90
55642;DHT22;41509;53.108;6.100;2023-04-24T07:29:18;9.80;99.90
55642;DHT22;41509;53.108;6.100;2023-04-24T07:31:44;9.80;99.90
55642;DHT22;41509;53.108;6.100;2023-04-24T07:34:09;9.80;99.90
55642;DHT22;41509;53.108;6.100;2023-04-24T07:36:35;9.80;99.90
55642;DHT22;41509;53.108;6.100;2023-04-24T07:39:01;9.70;99.90
55642;DHT22;41509;53.108;6.100;2023-04-24T07:41:26;9.80;99.90
55642;DHT22;41509;53.108;6.100;2023-04-24T07:43:53;9.70;99.90
55642;DHT22;41509;53.108;6.100;2023-04-24T07:46:19;9.70;99.90
55642;DHT22;41509;53.108;6.100;2023-04-24T07:48:46;9.70;99.90
55642;DHT22;41509;53.108;6.100;2023-04-24T07:51:14;9.70;99.90
55642;DHT22;41509;53.108;6.100;2023-04-24T07:53:41;9.70;99.90
55642;DHT22;41509;53.108;6.100;2023-04-24T07:56:06;9.70;99.90
55642;DHT22;41509;53.108;6.100;2023-04-24T07:58:32;9.70;99.90
55642;DHT22;41509;53.108;6.100;2023-04-24T08:00:58;9.70;99.90
55642;DHT22;41509;53.108;6.100;2023-04-24T08:03:23;9.60;99.90
55642;DHT22;41509;53.108;6.100;2023-04-24T08:05:50;9.60;99.90
55642;DHT22;41509;53.108;6.100;2023-04-24T08:08:16;9.60;99.90
55642;DHT22;41509;53.108;6.100;2023-04-24T08:10:42;9.60;99.90
55642;DHT22;41509;53.108;6.100;2023-04-24T08:13:08;9.50;99.90
55642;DHT22;41509;53.108;6.100;2023-04-24T08:15:34;9.60;99.90
55642;DHT22;41509;53.108;6.100;2023-04-24T08:18:00;9.50;99.90
55642;DHT22;41509;53.108;6.100;2023-04-24T08:20:26;9.60;99.90
55642;DHT22;41509;53.108;6.100;2023-04-24T08:22:51;9.60;99.90
55642;DHT22;41509;53.108;6.100;2023-04-24T08:25:17;9.60;99.90
55642;DHT22;41509;53.108;6.100;2023-04-24T08:27:44;9.60;99.90
55642;DHT22;41509;53.108;6.100;2023-04-24T08:30:10;9.70;99.90
55642;DHT22;41509;53.108;6.100;2023-04-24T08:32:36;9.70;99.90
55642;DHT22;41509;53.108;6.100;2023-04-24T08:35:02;9.70;99.90
55642;DHT22;41509;53.108;6.100;2023-04-24T08:37:27;9.70;99.90
55642;DHT22;41509;53.108;6.100;2023-04-24T08:39:53;9.70;99.90
55642;DHT22;41509;53.108;6.100;2023-04-24T08:42:20;9.80;99.90
55642;DHT22;41509;53.108;6.100;2023-04-24T08:44:46;9.80;99.90
55642;DHT22;41509;53.108;6.100;2023-04-24T08:47:15;9.80;99.90
55642;DHT22;41509;53.108;6.100;2023-04-24T08:49:41;9.80;99.90
55642;DHT22;41509;53.108;6.100;2023-04-24T08:52:08;9.90;99.90
55642;DHT22;41509;53.108;6.100;2023-04-24T08:54:35;9.90;99.90
55642;DHT22;41509;53.108;6.100;2023-04-24T08:57:01;9.90;99.90
55642;DHT22;41509;53.108;6.100;2023-04-24T08:59:31;10.00;99.90
55642;DHT22;41509;53.108;6.100;2023-04-24T09:01:59;9.90;99.90
55642;DHT22;41509;53.108;6.100;2023-04-24T09:04:25;9.80;99.90
55642;DHT22;41509;53.108;6.100;2023-04-24T09:06:55;9.80;99.90
55642;DHT22;41509;53.108;6.100;2023-04-24T09:09:26;9.80;99.90
55642;DHT22;41509;53.108;6.100;2023-04-24T09:11:53;9.80;99.90
55642;DHT22;41509;53.108;6.100;2023-04-24T09:14:23;9.80;99.90
55642;DHT22;41509;53.108;6.100;2023-04-24T09:16:49;9.80;99.90
55642;DHT22;41509;53.108;6.100;2023-04-24T09:19:15;9.80;99.90
55642;DHT22;41509;53.108;6.100;2023-04-24T09:21:41;9.80;99.90
55642;DHT22;41509;53.108;6.100;2023-04-24T09:24:15;9.80;99.90
55642;DHT22;41509;53.108;6.100;2023-04-24T09:26:43;9.90;99.90
55642;DHT22;41509;53.108;6.100;2023-04-24T09:29:17;9.90;99.90
55642;DHT22;41509;53.108;6.100;2023-04-24T09:31:46;9.90;99.90
55642;DHT22;41509;53.108;6.100;2023-04-24T09:34:12;10.00;99.90
55642;DHT22;41509;53.108;6.100;2023-04-24T09:36:39;10.10;99.90
55642;DHT22;41509;53.108;6.100;2023-04-24T09:39:08;10.10;99.90
55642;DHT22;41509;53.108;6.100;2023-04-24T09:41:44;10.20;99.90
55642;DHT22;41509;53.108;6.100;2023-04-24T09:44:15;10.30;99.90
55642;DHT22;41509;53.108;6.100;2023-04-24T09:46:42;10.30;99.90
55642;DHT22;41509;53.108;6.100;2023-04-24T09:49:15;10.40;99.90
55642;DHT22;41509;53.108;6.100;2023-04-24T09:51:42;10.50;99.90
55642;DHT22;41509;53.108;6.100;2023-04-24T09:54:23;10.50;99.90
55642;DHT22;41509;53.108;6.100;2023-04-24T09:56:50;10.50;99.90
55642;DHT22;41509;53.108;6.100;2023-04-24T09:59:18;10.50;99.90
55642;DHT22;41509;53.108;6.100;2023-04-24T10:01:44;10.40;99.90
55642;DHT22;41509;53.108;6.100;2023-04-24T10:06:47;10.50;99.90
55642;DHT22;41509;53.108;6.100;2023-04-24T10:09:24;10.60;99.90
55642;DHT22;41509;53.108;6.100;2023-04-24T10:11:51;10.60;99.90
55642;DHT22;41509;53.108;6.100;2023-04-24T10:14:21;10.60;99.90
55642;DHT22;41509;53.108;6.100;2023-04-24T10:16:47;10.60;99.90
55642;DHT22;41509;53.108;6.100;2023-04-24T10:19:15;10.50;99.90
55642;DHT22;41509;53.108;6.100;2023-04-24T10:21:42;10.50;99.90
55642;DHT22;41509;53.108;6.100;2023-04-24T10:24:08;10.40;99.90
55642;DHT22;41509;53.108;6.100;2023-04-24T10:26:35;10.30;99.90
55642;DHT22;41509;53.108;6.100;2023-04-24T10:29:01;10.20;99.90
55642;DHT22;41509;53.108;6.100;2023-04-24T10:31:27;10.30;99.90
55642;DHT22;41509;53.108;6.100;2023-04-24T10:33:56;10.30;99.90
55642;DHT22;41509;53.108;6.100;2023-04-24T10:36:24;10.30;99.90
55642;DHT22;41509;53.108;6.100;2023-04-24T10:38:53;10.30;99.90
55642;DHT22;41509;53.108;6.100;2023-04-24T10:41:20;10.30;99.90
55642;DHT22;41509;53.108;6.100;2023-04-24T10:44:03;10.30;99.90
55642;DHT22;41509;53.108;6.100;2023-04-24T10:46:30;10.30;99.90
55642;DHT22;41509;53.108;6.100;2023-04-24T10:48:56;10.30;99.90
55642;DHT22;41509;53.108;6.100;2023-04-24T10:51:23;10.40;99.90
55642;DHT22;41509;53.108;6.100;2023-04-24T10:53:52;10.40;99.90
55642;DHT22;41509;53.108;6.100;2023-04-24T10:56:18;10.50;99.90
55642;DHT22;41509;53.108;6.100;2023-04-24T10:58:51;10.60;99.90
55642;DHT22;41509;53.108;6.100;2023-04-24T11:01:26;10.70;99.90
55642;DHT22;41509;53.108;6.100;2023-04-24T11:03:58;10.60;99.90
55642;DHT22;41509;53.108;6.100;2023-04-24T11:06:34;10.70;99.90
55642;DHT22;41509;53.108;6.100;2023-04-24T11:09:09;10.70;99.90
55642;DHT22;41509;53.108;6.100;2023-04-24T11:11:36;10.80;99.90
55642;DHT22;41509;53.108;6.100;2023-04-24T11:14:09;10.70;99.90
55642;DHT22;41509;53.108;6.100;2023-04-24T11:19:33;10.60;99.90
55642;DHT22;41509;53.108;6.100;2023-04-24T11:22:01;10.50;99.90
55642;DHT22;41509;53.108;6.100;2023-04-24T11:32:34;10.00;99.90
55642;DHT22;41509;53.108;6.100;2023-04-24T11:35:15;10.00;99.90
55642;DHT22;41509;53.108;6.100;2023-04-24T11:37:50;9.80;99.90
55642;DHT22;41509;53.108;6.100;2023-04-24T11:40:17;9.80;99.90
55642;DHT22;41509;53.108;6.100;2023-04-24T11:42:44;9.70;99.90
55642;DHT22;41509;53.108;6.100;2023-04-24T11:45:12;9.80;99.90
55642;DHT22;41509;53.108;6.100;2023-04-24T11:47:39;9.80;99.90
55642;DHT22;41509;53.108;6.100;2023-04-24T11:50:07;9.80;99.90
55642;DHT22;41509;53.108;6.100;2023-04-24T11:52:37;9.80;99.90
55642;DHT22;41509;53.108;6.100;2023-04-24T11:55:03;9.80;99.90
55642;DHT22;41509;53.108;6.100;2023-04-24T11:57:29;9.90;99.90
55642;DHT22;41509;53.108;6.100;2023-04-24T12:00:01;9.90;99.90
55642;DHT22;41509;53.108;6.100;2023-04-24T12:02:27;9.90;99.90
55642;DHT22;41509;53.108;6.100;2023-04-24T12:04:54;10.00;99.90
55642;DHT22;41509;53.108;6.100;2023-04-24T12:07:20;10.10;99.90
55642;DHT22;41509;53.108;6.100;2023-04-24T12:09:57;10.10;99.90
55642;DHT22;41509;53.108;6.100;2023-04-24T12:12:27;10.10;99.90
55642;DHT22;41509;53.108;6.100;2023-04-24T12:17:31;10.00;99.90
55642;DHT22;41509;53.108;6.100;2023-04-24T12:19:59;10.10;99.90
55642;DHT22;41509;53.108;6.100;2023-04-24T12:22:28;10.00;99.90
55642;DHT22;41509;53.108;6.100;2023-04-24T12:25:00;10.10;99.90
55642;DHT22;41509;53.108;6.100;2023-04-24T12:27:28;10.10;99.90
55642;DHT22;41509;53.108;6.100;2023-04-24T12:29:58;10.20;99.90
55642;DHT22;41509;53.108;6.100;2023-04-24T12:32:25;10.30;99.90
55642;DHT22;41509;53.108;6.100;2023-04-24T12:34:51;10.30;99.90
55642;DHT22;41509;53.108;6.100;2023-04-24T12:37:24;10.40;99.90
55642;DHT22;41509;53.108;6.100;2023-04-24T12:40:05;10.40;99.90
55642;DHT22;41509;53.108;6.100;2023-04-24T12:42:45;10.40;99.90
55642;DHT22;41509;53.108;6.100;2023-04-24T12:45:11;10.50;99.90
55642;DHT22;41509;53.108;6.100;2023-04-24T12:47:38;10.50;99.90
55642;DHT22;41509;53.108;6.100;2023-04-24T12:50:04;10.40;99.90
55642;DHT22;41509;53.108;6.100;2023-04-24T12:52:31;10.40;99.90
55642;DHT22;41509;53.108;6.100;2023-04-24T12:54:59;10.30;99.90
55642;DHT22;41509;53.108;6.100;2023-04-24T12:57:29;10.30;99.90
55642;DHT22;41509;53.108;6.100;2023-04-24T12:59:56;10.30;99.90
55642;DHT22;41509;53.108;6.100;2023-04-24T13:02:32;10.30;99.90
55642;DHT22;41509;53.108;6.100;2023-04-24T13:04:59;10.20;99.90
55642;DHT22;41509;53.108;6.100;2023-04-24T13:07:26;10.30;99.90
55642;DHT22;41509;53.108;6.100;2023-04-24T13:09:55;10.50;99.90
55642;DHT22;41509;53.108;6.100;2023-04-24T13:12:23;10.60;99.90
55642;DHT22;41509;53.108;6.100;2023-04-24T13:14:49;10.70;99.90
55642;DHT22;41509;53.108;6.100;2023-04-24T13:17:15;10.70;99.90
55642;DHT22;41509;53.108;6.100;2023-04-24T13:19:42;10.70;99.90
55642;DHT22;41509;53.108;6.100;2023-04-24T13:22:09;10.60;99.90
55642;DHT22;41509;53.108;6.100;2023-04-24T13:24:35;10.60;99.90
55642;DHT22;41509;53.108;6.100;2023-04-24T13:27:04;10.50;99.90
55642;DHT22;41509;53.108;6.100;2023-04-24T13:29:29;10.40;99.90
55642;DHT22;41509;53.108;6.100;2023-04-24T13:31:55;10.40;99.90
55642;DHT22;41509;53.108;6.100;2023-04-24T13:34:27;10.30;99.90
55642;DHT22;41509;53.108;6.100;2023-04-24T13:36:54;10.30;99.90
55642;DHT22;41509;53.108;6.100;2023-04-24T13:39:20;10.30;99.90
55642;DHT22;41509;53.108;6.100;2023-04-24T13:41:46;10.20;99.90
55642;DHT22;41509;53.108;6.100;2023-04-24T13:44:14;10.20;99.90
55642;DHT22;41509;53.108;6.100;2023-04-24T13:46:40;10.20;99.90
55642;DHT22;41509;53.108;6.100;2023-04-24T13:49:06;10.10;99.90
55642;DHT22;41509;53.108;6.100;2023-04-24T13:51:32;10.10;99.90
55642;DHT22;41509;53.108;6.100;2023-04-24T13:53:58;10.10;99.90
55642;DHT22;41509;53.108;6.100;2023-04-24T13:56:26;10.10;99.90
55642;DHT22;41509;53.108;6.100;2023-04-24T13:58:51;10.10;99.90
55642;DHT22;41509;53.108;6.100;2023-04-24T14:01:19;10.00;99.90
55642;DHT22;41509;53.108;6.100;2023-04-24T14:03:46;10.00;99.90
55642;DHT22;41509;53.108;6.100;2023-04-24T14:06:11;9.80;99.90
55642;DHT22;41509;53.108;6.100;2023-04-24T14:08:37;9.80;99.90
55642;DHT22;41509;53.108;6.100;2023-04-24T14:11:03;9.80;99.90
55642;DHT22;41509;53.108;6.100;2023-04-24T14:13:32;9.70;99.90
55642;DHT22;41509;53.108;6.100;2023-04-24T14:15:58;9.70;99.90
55642;DHT22;41509;53.108;6.100;2023-04-24T14:18:23;9.70;99.90
55642;DHT22;41509;53.108;6.100;2023-04-24T14:20:49;9.60;99.90
55642;DHT22;41509;53.108;6.100;2023-04-24T14:23:16;9.60;99.90
55642;DHT22;41509;53.108;6.100;2023-04-24T14:25:44;9.50;99.90
55642;DHT22;41509;53.108;6.100;2023-04-24T14:28:09;9.50;99.90
55642;DHT22;41509;53.108;6.100;2023-04-24T14:30:38;9.50;99.90
55642;DHT22;41509;53.108;6.100;2023-04-24T14:33:05;9.50;99.90
55642;DHT22;41509;53.108;6.100;2023-04-24T14:35:31;9.50;99.90
55642;DHT22;41509;53.108;6.100;2023-04-24T14:37:59;9.60;99.90
55642;DHT22;41509;53.108;6.100;2023-04-24T14:40:25;9.60;99.90
55642;DHT22;41509;53.108;6.100;2023-04-24T14:42:53;9.60;99.90
55642;DHT22;41509;53.108;6.100;2023-04-24T14:45:19;9.60;99.90
55642;DHT22;41509;53.108;6.100;2023-04-24T14:47:45;9.70;99.90
55642;DHT22;41509;53.108;6.100;2023-04-24T14:50:11;9.70;99.90
55642;DHT22;41509;53.108;6.100;2023-04-24T14:52:38;9.60;99.90
55642;DHT22;41509;53.108;6.100;2023-04-24T14:55:04;9.60;99.90
55642;DHT22;41509;53.108;6.100;2023-04-24T14:57:30;9.80;99.90
55642;DHT22;41509;53.108;6.100;2023-04-24T14:59:55;9.70;99.90
55642;DHT22;41509;53.108;6.100;2023-04-24T15:02:21;9.70;99.90
55642;DHT22;41509;53.108;6.100;2023-04-24T15:04:49;9.70;99.90
55642;DHT22;41509;53.108;6.100;2023-04-24T15:07:14;9.60;99.90
55642;DHT22;41509;53.108;6.100;2023-04-24T15:09:40;9.60;99.90
55642;DHT22;41509;53.108;6.100;2023-04-24T15:12:06;9.60;99.90
55642;DHT22;41509;53.108;6.100;2023-04-24T15:14:32;9.70;99.90
55642;DHT22;41509;53.108;6.100;2023-04-24T15:16:57;9.70;99.90
55642;DHT22;41509;53.108;6.100;2023-04-24T15:19:23;9.70;99.90
55642;DHT22;41509;53.108;6.100;2023-04-24T15:21:52;9.70;99.90
55642;DHT22;41509;53.108;6.100;2023-04-24T15:24:17;9.70;99.90
55642;DHT22;41509;53.108;6.100;2023-04-24T15:26:48;9.60;99.90
55642;DHT22;41509;53.108;6.100;2023-04-24T15:29:14;9.70;99.90
55642;DHT22;41509;53.108;6.100;2023-04-24T15:31:39;9.70;99.90
55642;DHT22;41509;53.108;6.100;2023-04-24T15:34:06;9.70;99.90
55642;DHT22;41509;53.108;6.100;2023-04-24T15:36:34;9.70;99.90
55642;DHT22;41509;53.108;6.100;2023-04-24T15:39:01;9.60;99.90
55642;DHT22;41509;53.108;6.100;2023-04-24T15:41:27;9.50;99.90
55642;DHT22;41509;53.108;6.100;2023-04-24T15:43:52;9.40;99.90
55642;DHT22;41509;53.108;6.100;2023-04-24T15:46:18;9.40;99.90
55642;DHT22;41509;53.108;6.100;2023-04-24T15:48:44;9.50;99.90